Terminal Aerodrome Forecast
Issued by NWS

Home | Current Version | Previous Version | Graphics & Text | Print | Product List | Glossary On
Versions: 1 2 3 4 5 6 7 8 9 10 11 12
000
FTUS43 KTOP 270500
TAFMHK
TAF
KMHK 270520Z 2706/2806 05006KT P6SM BKN150
     FM271400 01011KT P6SM SCT150
     FM280100 01002KT P6SM SKC=

USA.gov is the U.S. government's official web portal to all federal, state and local government web resources and services.